createdAt,value
2018-04-10T00:00:38.585Z,82.42
2018-04-10T00:05:34.338Z,83.34
2018-04-10T00:10:33.920Z,83.44
2018-04-10T00:15:28.919Z,84.01
2018-04-10T00:20:25.884Z,83.92
2018-04-10T00:25:21.654Z,83.72
2018-04-10T00:30:22.643Z,84.49
2018-04-10T00:35:17.566Z,84.05
2018-04-10T00:40:13.668Z,84.39
2018-04-10T00:45:10.369Z,83.82
2018-04-10T00:50:05.997Z,85.83
2018-04-10T00:55:02.143Z,87.27
2018-04-10T01:00:02.357Z,88.95
2018-04-10T01:04:58.570Z,90.96
2018-04-10T01:09:54.850Z,90.62
2018-04-10T01:14:54.184Z,89.47
2018-04-10T01:19:49.144Z,88.13
2018-04-10T01:24:50.356Z,88.70
2018-04-10T01:29:49.255Z,89.18
2018-04-10T01:34:45.256Z,88.42
2018-04-10T01:39:44.979Z,90.77
2018-04-10T01:44:41.028Z,92.63
2018-04-10T01:49:37.380Z,92.11
2018-04-10T01:54:33.064Z,93.64
2018-04-10T01:59:30.151Z,93.74
2018-04-10T02:04:26.831Z,97.28
2018-04-10T02:14:22.557Z,95.17
2018-04-10T02:19:22.640Z,93.21
2018-04-10T02:24:18.601Z,94.36
2018-04-10T02:29:14.403Z,96.32
2018-04-10T02:34:10.212Z,95.07
2018-04-10T02:39:07.438Z,96.13
2018-04-10T02:44:02.904Z,95.84
2018-04-10T02:48:58.814Z,97.42
2018-04-10T02:53:54.550Z,96.70
2018-04-10T02:58:51.511Z,96.89
2018-04-10T03:03:51.149Z,97.66
2018-04-10T03:08:50.258Z,99.19
2018-04-10T03:13:45.255Z,99.81
2018-04-10T03:18:42.324Z,99.99
2018-04-10T03:23:37.682Z,99.99
2018-04-10T03:28:33.487Z,99.99
2018-04-10T03:33:34.098Z,99.99
2018-04-10T03:38:34.717Z,99.99
2018-04-10T03:43:33.302Z,99.99
2018-04-10T03:48:32.187Z,99.99
2018-04-10T03:53:28.055Z,99.99
2018-04-10T03:58:27.561Z,99.99
2018-04-10T04:03:28.603Z,99.99
2018-04-10T04:08:27.140Z,99.99
2018-04-10T04:13:23.916Z,99.99
2018-04-10T04:18:20.843Z,99.99
2018-04-10T04:23:16.068Z,99.99
2018-04-10T04:28:13.226Z,99.99
2018-04-10T04:33:10.168Z,99.99
2018-04-10T04:38:10.821Z,99.99
2018-04-10T04:43:06.765Z,99.99
2018-04-10T04:48:06.280Z,99.99
2018-04-10T04:53:05.171Z,99.99
2018-04-10T04:58:05.018Z,99.99
2018-04-10T05:03:01.113Z,99.99
2018-04-10T05:08:01.665Z,99.99
2018-04-10T05:13:01.455Z,99.99
2018-04-10T05:18:02.025Z,99.99
2018-04-10T05:23:01.505Z,99.99
2018-04-10T05:28:00.526Z,99.99
2018-04-10T05:33:00.107Z,99.99
2018-04-10T05:37:55.956Z,99.99
2018-04-10T05:42:51.334Z,99.99
2018-04-10T05:52:54.748Z,99.99
2018-04-10T05:57:54.680Z,99.99
2018-04-10T06:02:53.919Z,99.99
2018-04-10T06:07:49.309Z,99.99
2018-04-10T06:12:48.924Z,99.99
2018-04-10T06:17:49.356Z,99.99
2018-04-10T06:22:46.047Z,99.99
2018-04-10T06:27:46.971Z,99.99
2018-04-10T06:32:47.006Z,99.99
2018-04-10T06:37:42.328Z,99.99
2018-04-10T06:42:42.727Z,99.99
2018-04-10T06:47:44.680Z,97.04
2018-04-10T06:52:47.866Z,92.96
2018-04-10T06:57:48.692Z,94.45
2018-04-10T07:02:48.638Z,92.48
2018-04-10T07:07:50.195Z,88.31
2018-04-10T07:17:52.364Z,83.40
2018-04-10T07:33:01.666Z,84.07
2018-04-10T07:43:11.401Z,83.69
2018-04-10T07:48:14.249Z,83.30
2018-04-10T07:58:18.001Z,74.48
2018-04-10T08:08:22.860Z,73.42
2018-04-10T08:13:25.276Z,73.74
2018-04-10T08:18:25.935Z,71.56
2018-04-10T08:23:22.192Z,70.25
2018-04-10T08:28:25.383Z,69.29
2018-04-10T08:33:26.091Z,65.82
2018-04-10T08:38:27.588Z,63.66
2018-04-10T08:43:23.197Z,67.36
2018-04-10T08:48:25.456Z,69.67
2018-04-10T08:53:28.808Z,71.87
2018-04-10T08:58:28.837Z,70.95
2018-04-10T09:03:31.629Z,69.64
2018-04-10T09:08:31.119Z,67.84
2018-04-10T09:13:31.254Z,67.74
2018-04-10T09:18:30.436Z,66.33
2018-04-10T09:33:39.213Z,64.72
2018-04-10T09:38:38.272Z,63.60
2018-04-10T09:43:39.735Z,65.14
2018-04-10T09:48:40.088Z,64.34
2018-04-10T09:53:41.821Z,66.14
2018-04-10T09:58:44.392Z,65.85
2018-04-10T10:03:45.972Z,63.40
2018-04-10T10:08:47.973Z,60.73
2018-04-10T10:19:04.628Z,60.92
2018-04-10T10:24:05.999Z,57.66
2018-04-10T10:29:06.689Z,57.82
2018-04-10T10:34:08.195Z,59.73
2018-04-10T10:39:04.477Z,58.93
2018-04-10T10:44:06.424Z,59.25
2018-04-10T10:49:09.274Z,57.28
2018-04-10T10:54:11.806Z,55.46
2018-04-10T10:59:13.078Z,53.36
2018-04-10T11:04:19.226Z,54.43
2018-04-10T11:09:21.707Z,54.16
2018-04-10T11:14:23.727Z,55.22
2018-04-10T11:19:24.612Z,53.87
2018-04-10T11:24:28.365Z,52.18
2018-04-10T11:29:23.984Z,52.15
2018-04-10T11:34:20.927Z,53.55
2018-04-10T11:39:22.640Z,54.67
2018-04-10T11:44:24.148Z,52.20
2018-04-10T11:54:28.880Z,55.15
2018-04-10T11:59:25.637Z,55.15
2018-04-10T12:04:25.556Z,55.05
2018-04-10T12:09:27.246Z,54.83
2018-04-10T12:14:28.694Z,55.31
2018-04-10T12:19:29.376Z,56.95
2018-04-10T12:24:27.988Z,55.85
2018-04-10T12:39:30.644Z,57.70
2018-04-10T12:44:31.471Z,57.63
2018-04-10T12:49:26.969Z,56.47
2018-04-10T12:54:27.321Z,57.06
2018-04-10T13:04:21.412Z,59.00
2018-04-10T13:09:23.127Z,57.19
2018-04-10T13:14:22.082Z,55.11
2018-04-10T13:24:25.673Z,56.45
2018-04-10T13:29:23.097Z,57.82
2018-04-10T13:34:22.799Z,58.76
2018-04-10T13:39:23.881Z,61.80
2018-04-10T13:44:18.688Z,63.24
2018-04-10T13:49:14.718Z,62.92
2018-04-10T13:54:17.392Z,61.51
2018-04-10T13:59:18.088Z,61.51
2018-04-10T14:04:12.958Z,59.89
2018-04-10T14:09:09.249Z,59.74
2018-04-10T14:29:27.567Z,60.64
2018-04-10T14:34:27.108Z,61.41
2018-04-10T14:39:27.353Z,61.51
2018-04-10T14:54:34.295Z,63.02
2018-04-10T14:59:29.969Z,62.92
2018-04-10T15:04:30.889Z,62.57
2018-04-10T15:14:29.559Z,62.37
2018-04-10T15:19:30.089Z,63.34
2018-04-10T15:24:28.990Z,64.18
2018-04-10T15:29:30.142Z,64.56
2018-04-10T15:39:26.274Z,61.35
2018-04-10T15:44:24.125Z,60.96
2018-04-10T15:49:25.484Z,60.96
2018-04-10T15:54:24.424Z,60.96
2018-04-10T15:59:23.376Z,61.74
2018-04-10T16:04:23.642Z,62.99
2018-04-10T16:09:19.628Z,64.72
2018-04-10T16:14:21.323Z,64.21
2018-04-10T16:19:24.374Z,64.69
2018-04-10T16:24:23.598Z,64.79
2018-04-10T16:29:18.566Z,65.50
2018-04-10T16:34:18.416Z,66.08
2018-04-10T16:39:18.555Z,65.75
2018-04-10T16:44:16.041Z,66.14
2018-04-10T16:49:11.778Z,65.95
2018-04-10T16:54:07.596Z,65.37
2018-04-10T16:59:08.759Z,65.17
2018-04-10T17:04:04.632Z,65.47
2018-04-10T17:09:04.181Z,65.37
2018-04-10T17:14:05.251Z,65.14
2018-04-10T17:19:04.981Z,65.62
2018-04-10T17:24:05.533Z,66.69
2018-04-10T17:29:00.183Z,66.01
2018-04-10T17:33:57.259Z,67.07
2018-04-10T17:38:58.085Z,67.65
2018-04-10T17:43:55.884Z,67.07
2018-04-10T17:48:54.923Z,67.52
2018-04-10T17:53:49.833Z,67.42
2018-04-10T17:58:50.826Z,68.10
2018-04-10T18:03:46.848Z,68.77
2018-04-10T18:08:47.448Z,69.54
2018-04-10T18:13:47.192Z,69.79
2018-04-10T18:18:42.828Z,70.66
2018-04-10T18:23:43.412Z,71.24
2018-04-10T18:28:42.274Z,71.69
2018-04-10T18:33:38.718Z,72.65
2018-04-10T18:38:39.624Z,72.94
2018-04-10T18:43:38.163Z,74.29
2018-04-10T18:48:33.127Z,74.54
2018-04-10T18:53:32.855Z,75.40
2018-04-10T18:58:31.751Z,75.79
2018-04-10T19:03:27.652Z,76.46
2018-04-10T19:08:23.984Z,76.75
2018-04-10T19:13:23.464Z,77.61
2018-04-10T19:18:22.419Z,77.96
2018-04-10T19:23:21.172Z,78.15
2018-04-10T19:28:21.395Z,78.25
2018-04-10T19:33:16.343Z,78.63
2018-04-10T19:38:15.963Z,79.30
2018-04-10T19:43:11.957Z,79.40
2018-04-10T19:48:12.411Z,79.79
2018-04-10T19:53:07.572Z,79.88
2018-04-10T19:58:03.559Z,80.36
2018-04-10T20:02:59.287Z,80.46
2018-04-10T20:07:55.219Z,81.04
2018-04-10T20:12:55.040Z,81.04
2018-04-10T20:17:50.155Z,80.99
2018-04-10T20:22:50.895Z,81.28
2018-04-10T20:27:49.799Z,82.34
2018-04-10T20:32:50.299Z,81.63
2018-04-10T20:37:49.028Z,82.01
2018-04-10T20:42:44.203Z,81.24
2018-04-10T20:47:40.293Z,81.82
2018-04-10T20:52:37.372Z,82.40
2018-04-10T20:57:38.032Z,82.97
2018-04-10T21:02:32.917Z,83.31
2018-04-10T21:07:32.769Z,83.51
2018-04-10T21:12:28.549Z,84.12
2018-04-10T21:17:24.691Z,83.93
2018-04-10T21:22:24.824Z,83.84
2018-04-10T21:27:22.108Z,81.34
2018-04-10T21:32:22.491Z,81.05
2018-04-10T21:37:22.281Z,80.57
2018-04-10T21:42:21.890Z,78.42
2018-04-10T21:47:16.706Z,77.94
2018-04-10T21:52:17.328Z,77.84
2018-04-10T21:57:12.998Z,78.42
2018-04-10T22:02:09.410Z,81.07
2018-04-10T22:07:05.086Z,83.12
2018-04-10T22:12:00.941Z,80.30
2018-04-10T22:17:04.140Z,80.20
2018-04-10T22:21:59.100Z,80.87
2018-04-10T22:26:58.790Z,87.40
2018-04-10T22:31:58.860Z,87.21
2018-04-10T22:36:58.536Z,85.10
2018-04-10T22:41:54.580Z,84.33
2018-04-10T22:46:54.801Z,86.63
2018-04-10T22:51:53.514Z,84.28
2018-04-10T22:56:48.556Z,85.63
2018-04-10T23:01:44.440Z,88.41
2018-04-10T23:06:40.231Z,87.88
2018-04-10T23:11:40.951Z,88.17
2018-04-10T23:16:36.697Z,88.94
2018-04-10T23:21:32.114Z,91.77
2018-04-10T23:26:33.002Z,91.82
2018-04-10T23:31:29.052Z,92.06
2018-04-10T23:36:25.723Z,91.39
2018-04-10T23:41:21.131Z,91.58
2018-04-10T23:46:21.788Z,94.26
2018-04-10T23:51:16.730Z,96.18
2018-04-10T23:56:16.417Z,96.27
